Time;durP1;ratioP1;P1;durP2;ratioP2;P2;SDS_P1;SDS_P2;PMS_P1;PMS_P2;Temp;Humidity;BMP_temperature;BMP_pressure;BME280_temperature;BME280_humidity;BME280_pressure;Samples;Min_cycle;Max_cycle;Signal;HPM_P1;HPM_P2
2023/11/04 00:01:40;;;;;;;5.60;4.30;;;;;;;;;;778856;180;921665;-64
2023/11/04 00:04:06;;;;;;;4.80;3.50;;;;;;;;;;778195;179;915885;-63
2023/11/04 00:06:32;;;;;;;5.43;3.30;;;;;;;;;;773551;180;917422;-64
2023/11/04 00:08:57;;;;;;;4.07;3.30;;;;;;;;;;770034;180;919748;-65
2023/11/04 00:11:23;;;;;;;6.07;4.23;;;;;;;;;;774491;180;906304;-64
2023/11/04 00:13:49;;;;;;;10.60;3.93;;;;;;;;;;771237;180;936843;-65
2023/11/04 00:16:15;;;;;;;7.93;4.03;;;;;;;;;;771973;180;915993;-64
2023/11/04 00:18:41;;;;;;;5.23;3.17;;;;;;;;;;774995;180;916039;-64
2023/11/04 00:21:07;;;;;;;6.77;3.70;;;;;;;;;;769117;180;918006;-65
2023/11/04 00:23:33;;;;;;;5.93;4.10;;;;;;;;;;771741;180;920199;-65
2023/11/04 00:25:59;;;;;;;5.20;3.67;;;;;;;;;;775564;180;818376;-64
2023/11/04 00:28:25;;;;;;;5.00;3.50;;;;;;;;;;779085;180;919149;-65
2023/11/04 00:30:51;;;;;;;6.10;3.60;;;;;;;;;;772816;180;915001;-64
2023/11/04 00:33:17;;;;;;;5.90;3.83;;;;;;;;;;767581;180;922654;-65
2023/11/04 00:35:42;;;;;;;5.07;4.20;;;;;;;;;;774931;180;917688;-65
2023/11/04 00:38:08;;;;;;;6.30;4.10;;;;;;;;;;773750;181;923835;-66
2023/11/04 00:40:35;;;;;;;7.63;4.20;;;;;;;;;;771437;180;860376;-64
2023/11/04 00:43:00;;;;;;;5.77;3.60;;;;;;;;;;773796;180;923467;-65
2023/11/04 00:45:26;;;;;;;4.80;3.47;;;;;;;;;;767369;180;919381;-66
2023/11/04 00:47:52;;;;;;;7.00;3.75;;;;;;;;;;768372;180;926160;-64
2023/11/04 00:50:18;;;;;;;7.43;6.00;;;;;;;;;;769119;180;919200;-65
2023/11/04 00:52:43;;;;;;;5.43;3.80;;;;;;;;;;759939;181;918268;-64
2023/11/04 00:55:09;;;;;;;5.82;4.12;;;;;;;;;;767949;181;921994;-65
2023/11/04 00:57:35;;;;;;;5.40;4.00;;;;;;;;;;769886;180;918259;-66
2023/11/04 01:00:01;;;;;;;7.13;3.80;;;;;;;;;;777730;180;918566;-67
2023/11/04 01:02:27;;;;;;;6.07;4.10;;;;;;;;;;769744;180;919163;-64
2023/11/04 01:04:53;;;;;;;8.10;3.90;;;;;;;;;;772626;180;919948;-64
2023/11/04 01:07:18;;;;;;;14.40;5.80;;;;;;;;;;783502;178;813342;-64
2023/11/04 01:09:44;;;;;;;6.07;4.23;;;;;;;;;;775068;180;922742;-65
2023/11/04 01:12:10;;;;;;;6.65;4.10;;;;;;;;;;769075;180;918089;-65
2023/11/04 01:14:36;;;;;;;8.90;4.30;;;;;;;;;;778710;179;929493;-66
2023/11/04 01:17:02;;;;;;;7.50;4.53;;;;;;;;;;772489;180;916398;-65
2023/11/04 01:19:28;;;;;;;5.50;3.67;;;;;;;;;;772441;180;925987;-65
2023/11/04 01:21:54;;;;;;;6.73;4.20;;;;;;;;;;775579;180;896203;-65
2023/11/04 01:24:19;;;;;;;5.80;4.00;;;;;;;;;;779751;180;918964;-64
2023/11/04 01:26:45;;;;;;;8.20;3.70;;;;;;;;;;772747;180;919586;-65
2023/11/04 01:29:11;;;;;;;4.87;3.60;;;;;;;;;;774487;180;918476;-64
2023/11/04 01:31:37;;;;;;;5.47;4.20;;;;;;;;;;778038;180;917658;-64
2023/11/04 01:34:03;;;;;;;5.00;3.28;;;;;;;;;;769100;180;919517;-65
2023/11/04 01:36:29;;;;;;;5.50;3.87;;;;;;;;;;771748;180;918823;-64
2023/11/04 01:38:54;;;;;;;11.50;4.53;;;;;;;;;;776696;180;917961;-64
2023/11/04 01:41:20;;;;;;;15.40;4.03;;;;;;;;;;773022;180;919341;-65
2023/11/04 01:43:46;;;;;;;6.03;3.70;;;;;;;;;;769334;180;915914;-65
2023/11/04 01:46:12;;;;;;;7.53;3.77;;;;;;;;;;774648;180;917957;-64
2023/11/04 01:48:39;;;;;;;5.07;3.83;;;;;;;;;;773165;180;914739;-65
2023/11/04 01:51:05;;;;;;;5.77;4.27;;;;;;;;;;771045;180;915902;-64
2023/11/04 01:53:31;;;;;;;5.77;4.00;;;;;;;;;;765923;180;918953;-64
2023/11/04 01:55:56;;;;;;;6.33;3.97;;;;;;;;;;771836;180;919908;-64
2023/11/04 01:58:22;;;;;;;9.40;3.80;;;;;;;;;;772054;180;920407;-65
2023/11/04 02:00:48;;;;;;;5.03;3.90;;;;;;;;;;770985;180;914129;-65
2023/11/04 02:03:14;;;;;;;5.72;4.00;;;;;;;;;;772646;181;817967;-65
2023/11/04 02:05:40;;;;;;;5.30;3.57;;;;;;;;;;767962;180;823132;-65
2023/11/04 02:08:06;;;;;;;4.47;3.40;;;;;;;;;;774438;180;894636;-65
2023/11/04 02:10:32;;;;;;;5.90;4.35;;;;;;;;;;772113;181;918825;-65
2023/11/04 02:12:57;;;;;;;6.10;3.57;;;;;;;;;;772662;180;917347;-64
2023/11/04 02:15:23;;;;;;;8.90;4.17;;;;;;;;;;773161;180;905957;-65
2023/11/04 02:17:49;;;;;;;5.37;3.70;;;;;;;;;;776962;179;827490;-65
2023/11/04 02:20:15;;;;;;;4.67;3.63;;;;;;;;;;779335;180;855660;-64
2023/11/04 02:22:41;;;;;;;6.23;3.90;;;;;;;;;;776646;180;917946;-64
2023/11/04 02:25:07;;;;;;;10.27;4.70;;;;;;;;;;773892;180;918787;-66
2023/11/04 02:27:33;;;;;;;6.43;3.72;;;;;;;;;;779780;180;920336;-64
2023/11/04 02:29:58;;;;;;;5.20;3.53;;;;;;;;;;768979;181;921153;-65
2023/11/04 02:32:25;;;;;;;6.68;4.50;;;;;;;;;;774363;180;1022395;-64
2023/11/04 02:34:51;;;;;;;5.73;4.07;;;;;;;;;;778110;180;919092;-65
2023/11/04 02:37:17;;;;;;;7.37;4.10;;;;;;;;;;772502;180;919162;-65
2023/11/04 02:39:43;;;;;;;6.30;4.17;;;;;;;;;;773413;180;917959;-66
2023/11/04 02:42:09;;;;;;;6.23;4.37;;;;;;;;;;771012;180;918721;-65
2023/11/04 02:44:34;;;;;;;5.57;3.97;;;;;;;;;;778632;180;817504;-66
2023/11/04 02:47:00;;;;;;;8.60;4.70;;;;;;;;;;769097;180;919493;-64
2023/11/04 02:49:26;;;;;;;6.05;5.45;;;;;;;;;;773774;180;886692;-65
2023/11/04 02:51:52;;;;;;;5.20;4.50;;;;;;;;;;776849;180;918715;-65
2023/11/04 02:54:18;;;;;;;5.80;3.70;;;;;;;;;;772862;180;893127;-65
2023/11/04 02:56:43;;;;;;;5.43;4.00;;;;;;;;;;773820;180;918919;-65
2023/11/04 02:59:09;;;;;;;7.57;4.80;;;;;;;;;;776803;180;916270;-65
2023/11/04 03:01:35;;;;;;;9.03;4.53;;;;;;;;;;773224;180;941021;-66
2023/11/04 03:04:02;;;;;;;7.90;5.47;;;;;;;;;;771001;180;916667;-66
2023/11/04 03:06:27;;;;;;;7.33;4.20;;;;;;;;;;769593;180;920967;-65
2023/11/04 03:08:53;;;;;;;6.33;4.80;;;;;;;;;;758348;182;918822;-65
2023/11/04 03:11:18;;;;;;;6.53;4.43;;;;;;;;;;737885;187;919374;-64
2023/11/04 03:13:45;;;;;;;6.50;4.97;;;;;;;;;;750856;184;918883;-64
2023/11/04 03:16:18;;;;;;;9.80;4.73;;;;;;;;;;751263;184;918988;-64
2023/11/04 03:18:43;;;;;;;8.57;4.82;;;;;;;;;;766652;180;919642;-65
2023/11/04 03:21:09;;;;;;;6.90;5.23;;;;;;;;;;768373;180;920355;-65
2023/11/04 03:23:34;;;;;;;8.70;4.53;;;;;;;;;;772296;180;922032;-64
2023/11/04 03:26:00;;;;;;;8.53;4.53;;;;;;;;;;771977;180;911753;-65
2023/11/04 03:28:26;;;;;;;6.63;4.17;;;;;;;;;;768106;180;922671;-65
2023/11/04 03:30:52;;;;;;;6.97;4.67;;;;;;;;;;774066;179;920276;-65
2023/11/04 03:33:18;;;;;;;5.90;4.87;;;;;;;;;;777000;180;918337;-65
2023/11/04 03:35:45;;;;;;;7.23;4.83;;;;;;;;;;774527;180;917778;-65
2023/11/04 03:38:09;;;;;;;9.33;4.03;;;;;;;;;;771072;180;918629;-65
2023/11/04 03:40:35;;;;;;;6.10;4.30;;;;;;;;;;776858;180;918905;-65
2023/11/04 03:43:01;;;;;;;6.82;5.07;;;;;;;;;;769833;180;921564;-65
2023/11/04 03:45:27;;;;;;;10.93;4.63;;;;;;;;;;773276;180;919519;-64
2023/11/04 03:47:54;;;;;;;6.30;4.60;;;;;;;;;;776246;180;916200;-64
2023/11/04 03:50:20;;;;;;;7.90;4.27;;;;;;;;;;768685;181;918992;-64
2023/11/04 03:52:45;;;;;;;5.73;4.00;;;;;;;;;;769506;180;918937;-64
2023/11/04 03:55:11;;;;;;;5.93;3.75;;;;;;;;;;772729;180;926189;-65
2023/11/04 03:57:37;;;;;;;6.43;4.50;;;;;;;;;;768453;180;917297;-65
2023/11/04 04:00:03;;;;;;;9.70;6.13;;;;;;;;;;771859;180;917830;-66
2023/11/04 04:02:29;;;;;;;6.47;4.20;;;;;;;;;;772391;180;918879;-65
2023/11/04 04:04:55;;;;;;;5.30;4.30;;;;;;;;;;778620;180;917953;-65
2023/11/04 04:07:21;;;;;;;5.20;4.30;;;;;;;;;;770192;180;917218;-65
2023/11/04 04:09:46;;;;;;;7.57;4.70;;;;;;;;;;770565;180;919390;-64
2023/11/04 04:12:12;;;;;;;6.40;4.10;;;;;;;;;;777343;180;916357;-65
2023/11/04 04:14:39;;;;;;;5.40;3.83;;;;;;;;;;772639;180;909696;-64
2023/11/04 04:17:04;;;;;;;4.70;3.47;;;;;;;;;;769861;180;915095;-64
2023/11/04 04:19:30;;;;;;;5.90;4.20;;;;;;;;;;768330;180;915908;-65
2023/11/04 04:21:56;;;;;;;6.83;4.10;;;;;;;;;;772462;180;915687;-66
2023/11/04 04:24:22;;;;;;;12.73;4.50;;;;;;;;;;775849;180;813687;-64
2023/11/04 04:26:47;;;;;;;5.90;4.20;;;;;;;;;;770442;180;918640;-65
2023/11/04 04:29:13;;;;;;;5.00;3.40;;;;;;;;;;774829;180;814333;-64
2023/11/04 04:31:39;;;;;;;5.05;3.90;;;;;;;;;;771839;179;915863;-65
2023/11/04 04:34:05;;;;;;;5.13;3.77;;;;;;;;;;770772;181;917361;-65
2023/11/04 04:36:31;;;;;;;4.53;3.70;;;;;;;;;;776548;180;1018681;-64
2023/11/04 04:38:57;;;;;;;7.83;4.23;;;;;;;;;;772668;180;918000;-65
2023/11/04 04:41:23;;;;;;;8.10;4.62;;;;;;;;;;774829;178;920413;-65
2023/11/04 04:43:48;;;;;;;6.67;4.00;;;;;;;;;;774953;179;818699;-65
2023/11/04 04:46:15;;;;;;;9.40;4.00;;;;;;;;;;777345;180;825959;-65
2023/11/04 04:48:40;;;;;;;7.50;4.43;;;;;;;;;;770711;179;818746;-65
2023/11/04 04:51:06;;;;;;;5.00;4.00;;;;;;;;;;773286;180;918975;-65
2023/11/04 04:53:32;;;;;;;8.70;3.83;;;;;;;;;;782165;180;821119;-64
2023/11/04 04:55:57;;;;;;;5.90;4.13;;;;;;;;;;770284;180;919253;-65
2023/11/04 04:58:23;;;;;;;8.35;4.07;;;;;;;;;;773303;180;815884;-64
2023/11/04 05:00:49;;;;;;;7.03;5.07;;;;;;;;;;774989;181;816420;-64
2023/11/04 05:03:15;;;;;;;7.87;4.20;;;;;;;;;;771822;180;919100;-64
2023/11/04 05:05:41;;;;;;;8.13;4.23;;;;;;;;;;775019;180;919121;-65
2023/11/04 05:08:07;;;;;;;6.77;4.43;;;;;;;;;;778183;180;918445;-65
2023/11/04 05:10:33;;;;;;;6.60;4.67;;;;;;;;;;774179;180;854523;-65
2023/11/04 05:12:59;;;;;;;7.43;4.70;;;;;;;;;;769178;180;921596;-64
2023/11/04 05:15:24;;;;;;;8.70;3.77;;;;;;;;;;770133;180;919990;-66
2023/11/04 05:17:51;;;;;;;6.47;4.27;;;;;;;;;;773776;180;919209;-66
2023/11/04 05:20:16;;;;;;;6.77;4.90;;;;;;;;;;769303;180;918325;-65
2023/11/04 05:22:42;;;;;;;8.65;4.68;;;;;;;;;;773008;180;916940;-64
2023/11/04 05:25:08;;;;;;;7.90;5.93;;;;;;;;;;774865;180;920712;-65
2023/11/04 05:27:34;;;;;;;6.30;4.97;;;;;;;;;;767804;180;920817;-65
2023/11/04 05:30:00;;;;;;;11.10;4.90;;;;;;;;;;773623;180;934983;-64
2023/11/04 05:32:26;;;;;;;6.50;4.93;;;;;;;;;;774090;180;923368;-64
2023/11/04 05:34:51;;;;;;;7.93;5.13;;;;;;;;;;768913;180;918087;-64
2023/11/04 05:37:17;;;;;;;12.20;6.60;;;;;;;;;;771551;180;816764;-64
2023/11/04 05:39:43;;;;;;;13.00;5.20;;;;;;;;;;768266;180;815124;-64
2023/11/04 05:42:09;;;;;;;5.15;4.25;;;;;;;;;;770437;181;873109;-64
2023/11/04 05:44:35;;;;;;;6.00;4.00;;;;;;;;;;764908;180;919391;-64
2023/11/04 05:47:01;;;;;;;6.17;4.90;;;;;;;;;;772318;180;917547;-65
2023/11/04 05:49:27;;;;;;;7.53;5.30;;;;;;;;;;774745;180;819927;-64
2023/11/04 05:51:52;;;;;;;6.20;4.90;;;;;;;;;;768028;180;923058;-64
2023/11/04 05:54:18;;;;;;;5.93;4.10;;;;;;;;;;769568;179;920307;-65
2023/11/04 05:56:44;;;;;;;11.07;6.37;;;;;;;;;;778682;180;816310;-64
2023/11/04 05:59:10;;;;;;;6.33;4.23;;;;;;;;;;773794;180;919507;-64
2023/11/04 06:01:36;;;;;;;8.70;4.80;;;;;;;;;;768789;180;820348;-64
2023/11/04 06:04:02;;;;;;;6.43;4.73;;;;;;;;;;780659;180;919047;-65
2023/11/04 06:06:28;;;;;;;7.87;4.40;;;;;;;;;;773562;180;932151;-64
2023/11/04 06:08:53;;;;;;;7.10;5.00;;;;;;;;;;772909;180;919229;-66
2023/11/04 06:11:19;;;;;;;6.80;4.43;;;;;;;;;;773547;180;916925;-64
2023/11/04 06:13:45;;;;;;;7.37;4.83;;;;;;;;;;778455;180;895200;-65
2023/11/04 06:16:11;;;;;;;6.13;5.00;;;;;;;;;;773931;180;930043;-65
2023/11/04 06:18:37;;;;;;;10.87;5.37;;;;;;;;;;771820;180;919342;-65
2023/11/04 06:21:04;;;;;;;5.90;4.60;;;;;;;;;;774419;180;890695;-64
2023/11/04 06:23:30;;;;;;;6.97;4.80;;;;;;;;;;775885;180;919521;-66
2023/11/04 06:25:55;;;;;;;4.93;3.70;;;;;;;;;;770063;180;919336;-65
2023/11/04 06:28:21;;;;;;;18.03;5.23;;;;;;;;;;777494;180;918940;-64
2023/11/04 06:30:47;;;;;;;4.93;3.50;;;;;;;;;;766950;180;919732;-65
2023/11/04 06:33:13;;;;;;;6.30;4.40;;;;;;;;;;771723;180;921503;-65
2023/11/04 06:35:39;;;;;;;5.43;4.00;;;;;;;;;;770171;180;918117;-64
2023/11/04 06:38:05;;;;;;;6.00;3.87;;;;;;;;;;777501;181;919486;-65
2023/11/04 06:40:32;;;;;;;4.87;3.70;;;;;;;;;;773075;180;918191;-65
2023/11/04 06:42:56;;;;;;;6.10;4.00;;;;;;;;;;773630;180;919387;-64
2023/11/04 06:45:22;;;;;;;7.40;4.57;;;;;;;;;;775390;180;910714;-65
2023/11/04 06:47:48;;;;;;;5.57;4.10;;;;;;;;;;771748;180;917808;-64
2023/11/04 06:50:14;;;;;;;4.82;3.70;;;;;;;;;;769401;180;920702;-65
2023/11/04 06:52:40;;;;;;;5.67;3.90;;;;;;;;;;776423;180;923222;-65
2023/11/04 06:55:06;;;;;;;5.50;3.80;;;;;;;;;;771518;180;922737;-65
2023/11/04 06:57:33;;;;;;;5.80;3.77;;;;;;;;;;770166;180;918683;-65
2023/11/04 06:59:58;;;;;;;5.90;4.30;;;;;;;;;;772618;180;921302;-65
2023/11/04 07:02:24;;;;;;;5.00;3.87;;;;;;;;;;769011;180;815344;-65
2023/11/04 07:04:49;;;;;;;6.77;4.43;;;;;;;;;;773540;179;920413;-66
2023/11/04 07:07:15;;;;;;;4.43;3.60;;;;;;;;;;776266;180;613631;-66
2023/11/04 07:09:41;;;;;;;4.50;3.47;;;;;;;;;;778118;179;713779;-65
2023/11/04 07:12:07;;;;;;;5.10;3.60;;;;;;;;;;769306;180;917753;-64
2023/11/04 07:14:33;;;;;;;4.33;3.40;;;;;;;;;;764384;180;815416;-64
2023/11/04 07:16:59;;;;;;;6.33;3.60;;;;;;;;;;777514;180;816968;-65
2023/11/04 07:19:25;;;;;;;5.80;3.67;;;;;;;;;;777343;180;921223;-65
2023/11/04 07:21:51;;;;;;;4.00;2.73;;;;;;;;;;774556;180;918456;-65
2023/11/04 07:24:18;;;;;;;7.20;3.60;;;;;;;;;;775945;180;919116;-64
2023/11/04 07:26:45;;;;;;;4.43;3.00;;;;;;;;;;770055;180;919748;-64
2023/11/04 07:29:09;;;;;;;4.10;3.23;;;;;;;;;;771704;180;919876;-64
2023/11/04 07:31:35;;;;;;;4.37;2.97;;;;;;;;;;768658;180;917943;-64
2023/11/04 07:34:00;;;;;;;4.33;3.07;;;;;;;;;;775056;180;918243;-64
2023/11/04 07:36:26;;;;;;;7.50;3.27;;;;;;;;;;768667;180;923989;-65
2023/11/04 07:38:52;;;;;;;3.53;2.80;;;;;;;;;;777141;180;843158;-65
2023/11/04 07:41:17;;;;;;;4.43;2.77;;;;;;;;;;779203;180;905695;-65
2023/11/04 07:43:43;;;;;;;3.80;2.80;;;;;;;;;;772138;180;816594;-67
2023/11/04 07:46:09;;;;;;;3.57;2.90;;;;;;;;;;773577;180;924964;-64
2023/11/04 07:48:35;;;;;;;3.90;2.90;;;;;;;;;;777844;180;914810;-65
2023/11/04 07:51:01;;;;;;;3.70;2.57;;;;;;;;;;770462;180;914739;-65
2023/11/04 07:53:27;;;;;;;5.60;3.60;;;;;;;;;;768675;180;918938;-64
2023/11/04 07:55:52;;;;;;;4.23;2.93;;;;;;;;;;768988;180;913853;-64
2023/11/04 07:58:21;;;;;;;4.50;2.80;;;;;;;;;;760135;181;904718;-64
2023/11/04 08:00:44;;;;;;;4.53;2.47;;;;;;;;;;766241;180;920107;-64
2023/11/04 08:03:10;;;;;;;3.67;2.23;;;;;;;;;;769577;180;921248;-64
2023/11/04 08:05:40;;;;;;;5.67;2.97;;;;;;;;;;776761;180;910951;-65
2023/11/04 08:08:02;;;;;;;5.65;2.55;;;;;;;;;;770183;180;817560;-64
2023/11/04 08:10:28;;;;;;;3.20;2.33;;;;;;;;;;771529;180;640262;-64
2023/11/04 08:12:53;;;;;;;5.30;3.30;;;;;;;;;;778601;180;629389;-64
2023/11/04 08:15:19;;;;;;;4.20;2.60;;;;;;;;;;771430;179;916453;-63
2023/11/04 08:17:45;;;;;;;4.57;2.70;;;;;;;;;;778757;179;795054;-65
2023/11/04 08:20:11;;;;;;;4.73;2.70;;;;;;;;;;776992;180;917895;-64
2023/11/04 08:22:38;;;;;;;4.60;3.30;;;;;;;;;;779076;180;715098;-64
2023/11/04 08:25:03;;;;;;;4.87;3.07;;;;;;;;;;771953;180;918911;-65
2023/11/04 08:27:29;;;;;;;3.27;2.33;;;;;;;;;;771325;180;919111;-64
2023/11/04 08:29:55;;;;;;;6.00;3.40;;;;;;;;;;781233;180;815880;-66
2023/11/04 08:32:21;;;;;;;5.43;2.97;;;;;;;;;;773145;180;940369;-66
2023/11/04 08:34:46;;;;;;;5.67;2.83;;;;;;;;;;769591;180;906453;-63
2023/11/04 08:37:12;;;;;;;3.73;2.73;;;;;;;;;;775500;180;918742;-64
2023/11/04 08:39:38;;;;;;;4.33;2.80;;;;;;;;;;770806;180;918634;-65
2023/11/04 08:42:06;;;;;;;3.83;2.50;;;;;;;;;;772104;180;821566;-64
2023/11/04 08:44:30;;;;;;;4.30;2.40;;;;;;;;;;770720;180;919384;-66
2023/11/04 08:46:56;;;;;;;4.07;2.53;;;;;;;;;;773435;180;818633;-64
2023/11/04 08:49:21;;;;;;;4.63;2.73;;;;;;;;;;771540;180;918987;-66
2023/11/04 08:51:47;;;;;;;4.27;2.37;;;;;;;;;;768637;180;916620;-64
2023/11/04 08:54:13;;;;;;;5.00;2.13;;;;;;;;;;770907;180;918744;-66
2023/11/04 08:56:39;;;;;;;5.87;2.70;;;;;;;;;;772144;180;919591;-64
2023/11/04 08:59:05;;;;;;;3.70;2.00;;;;;;;;;;772779;180;913618;-65
2023/11/04 09:01:31;;;;;;;6.23;2.40;;;;;;;;;;772863;180;919326;-64
2023/11/04 09:03:57;;;;;;;3.80;2.20;;;;;;;;;;774149;180;974358;-65
2023/11/04 09:06:22;;;;;;;3.78;2.28;;;;;;;;;;773644;180;911926;-66
2023/11/04 09:08:48;;;;;;;3.80;2.03;;;;;;;;;;776443;180;816020;-66
2023/11/04 09:11:14;;;;;;;3.55;2.00;;;;;;;;;;771998;180;941706;-65
2023/11/04 09:13:40;;;;;;;4.40;2.55;;;;;;;;;;774964;180;915283;-64
2023/11/04 09:16:06;;;;;;;3.10;2.10;;;;;;;;;;772893;180;626792;-65
2023/11/04 09:18:34;;;;;;;3.20;2.30;;;;;;;;;;774694;180;920075;-64
2023/11/04 09:20:57;;;;;;;3.00;2.07;;;;;;;;;;771560;180;920755;-65
2023/11/04 09:23:23;;;;;;;6.68;2.45;;;;;;;;;;775347;180;919577;-66
2023/11/04 09:25:49;;;;;;;6.07;2.00;;;;;;;;;;775560;180;1016860;-66
2023/11/04 09:28:15;;;;;;;4.03;2.27;;;;;;;;;;774435;178;918512;-64
2023/11/04 09:30:41;;;;;;;5.53;3.30;;;;;;;;;;775279;180;919249;-65
2023/11/04 09:33:08;;;;;;;10.33;6.73;;;;;;;;;;773470;180;862665;-65
2023/11/04 09:35:33;;;;;;;9.87;3.73;;;;;;;;;;772943;180;919130;-65
2023/11/04 09:37:59;;;;;;;6.53;2.40;;;;;;;;;;768189;180;917674;-66
2023/11/04 09:40:24;;;;;;;4.50;2.90;;;;;;;;;;774340;180;916063;-66
2023/11/04 09:42:50;;;;;;;4.03;2.60;;;;;;;;;;772751;180;920884;-67
2023/11/04 09:45:19;;;;;;;7.47;2.97;;;;;;;;;;769866;180;916609;-63
2023/11/04 09:47:42;;;;;;;5.50;2.73;;;;;;;;;;766561;181;919240;-66
2023/11/04 09:50:10;;;;;;;6.70;2.33;;;;;;;;;;781099;180;922630;-67
2023/11/04 09:52:34;;;;;;;4.90;2.90;;;;;;;;;;772003;180;917143;-66
2023/11/04 09:55:00;;;;;;;4.60;2.70;;;;;;;;;;773552;180;914895;-68
2023/11/04 09:57:26;;;;;;;4.00;2.87;;;;;;;;;;777625;180;909634;-67
2023/11/04 09:59:52;;;;;;;9.13;3.67;;;;;;;;;;777055;180;842894;-65
2023/11/04 10:02:18;;;;;;;4.10;2.77;;;;;;;;;;773203;180;915792;-67
2023/11/04 10:04:43;;;;;;;7.13;3.60;;;;;;;;;;775854;180;912808;-66
2023/11/04 10:07:09;;;;;;;4.53;2.67;;;;;;;;;;769478;180;920336;-65
2023/11/04 10:09:35;;;;;;;6.17;2.90;;;;;;;;;;771797;181;823100;-66
2023/11/04 10:12:03;;;;;;;5.50;2.30;;;;;;;;;;773847;180;817883;-66
2023/11/04 10:14:27;;;;;;;3.70;2.20;;;;;;;;;;772312;180;819443;-66
2023/11/04 10:16:53;;;;;;;4.77;2.73;;;;;;;;;;773384;180;919027;-67
2023/11/04 10:19:19;;;;;;;5.15;2.67;;;;;;;;;;773111;180;817362;-68
2023/11/04 10:21:44;;;;;;;4.67;2.60;;;;;;;;;;774180;180;789100;-67
2023/11/04 10:24:10;;;;;;;3.53;2.30;;;;;;;;;;771955;180;922881;-68
2023/11/04 10:26:36;;;;;;;3.50;2.00;;;;;;;;;;772952;180;1017603;-67
2023/11/04 10:29:02;;;;;;;3.23;1.73;;;;;;;;;;777861;180;850208;-68
2023/11/04 10:31:28;;;;;;;4.33;1.93;;;;;;;;;;767355;180;873000;-66
2023/11/04 10:33:54;;;;;;;4.50;2.40;;;;;;;;;;765017;180;1005514;-66
2023/11/04 10:36:21;;;;;;;3.55;2.15;;;;;;;;;;772352;180;910701;-66
2023/11/04 10:38:46;;;;;;;7.40;1.80;;;;;;;;;;772915;178;915103;-68
2023/11/04 10:41:12;;;;;;;3.00;1.80;;;;;;;;;;769849;179;919230;-65
2023/11/04 10:43:41;;;;;;;3.83;2.20;;;;;;;;;;768942;180;918865;-66
2023/11/04 10:46:07;;;;;;;6.20;2.30;;;;;;;;;;778280;180;922313;-67
2023/11/04 10:48:39;;;;;;;3.10;1.90;;;;;;;;;;775029;180;918498;-66
2023/11/04 10:51:21;;;;;;;6.40;2.87;;;;;;;;;;772997;180;923019;-68
2023/11/04 10:54:06;;;;;;;3.53;2.47;;;;;;;;;;773069;180;917483;-66
2023/11/04 10:56:32;;;;;;;4.13;2.50;;;;;;;;;;768568;180;921371;-66
2023/11/04 10:59:13;;;;;;;4.10;2.37;;;;;;;;;;769843;180;920240;-66
2023/11/04 11:01:41;;;;;;;3.27;2.20;;;;;;;;;;771895;180;918954;-66
2023/11/04 11:04:05;;;;;;;4.80;2.10;;;;;;;;;;780826;180;919317;-65
2023/11/04 11:06:31;;;;;;;4.10;2.60;;;;;;;;;;770232;180;918628;-66
2023/11/04 11:08:57;;;;;;;4.30;2.45;;;;;;;;;;770305;180;918874;-66
2023/11/04 11:11:22;;;;;;;4.93;2.50;;;;;;;;;;778151;180;918229;-65
2023/11/04 11:13:49;;;;;;;2.80;1.73;;;;;;;;;;772031;180;925198;-68
2023/11/04 11:16:14;;;;;;;3.87;2.20;;;;;;;;;;776611;180;918142;-67
2023/11/04 11:18:40;;;;;;;3.13;2.30;;;;;;;;;;780081;180;862066;-65
2023/11/04 11:21:08;;;;;;;4.20;2.03;;;;;;;;;;769964;180;918643;-66
2023/11/04 11:23:33;;;;;;;5.30;2.67;;;;;;;;;;767560;181;817669;-66
2023/11/04 11:26:01;;;;;;;4.60;2.10;;;;;;;;;;773139;180;924614;-66
2023/11/04 11:28:27;;;;;;;5.93;2.37;;;;;;;;;;776071;180;925733;-65
2023/11/04 11:30:54;;;;;;;3.30;1.40;;;;;;;;;;770258;180;922343;-65
2023/11/04 11:33:19;;;;;;;3.00;1.90;;;;;;;;;;768969;180;913216;-66
2023/11/04 11:35:50;;;;;;;2.80;1.90;;;;;;;;;;777713;180;818458;-66
2023/11/04 11:38:16;;;;;;;3.17;1.90;;;;;;;;;;772948;180;917492;-66
2023/11/04 11:40:42;;;;;;;3.83;1.60;;;;;;;;;;771358;180;919864;-66
2023/11/04 11:43:08;;;;;;;3.00;1.60;;;;;;;;;;766705;180;918378;-66
2023/11/04 11:45:35;;;;;;;3.20;1.40;;;;;;;;;;776251;180;918811;-66
2023/11/04 11:48:00;;;;;;;3.00;1.50;;;;;;;;;;772868;181;891181;-66
2023/11/04 11:50:26;;;;;;;4.00;1.40;;;;;;;;;;771611;179;919686;-66
2023/11/04 11:52:51;;;;;;;2.40;1.40;;;;;;;;;;775590;179;929204;-68
2023/11/04 11:55:17;;;;;;;6.47;2.00;;;;;;;;;;772889;180;916192;-67
2023/11/04 11:57:43;;;;;;;4.10;1.40;;;;;;;;;;774320;180;823650;-68
2023/11/04 12:00:10;;;;;;;2.93;1.63;;;;;;;;;;776352;180;918641;-67
2023/11/04 12:02:36;;;;;;;2.50;1.30;;;;;;;;;;773332;178;811432;-74
2023/11/04 12:05:02;;;;;;;2.90;1.70;;;;;;;;;;771512;182;918068;-75
2023/11/04 12:07:27;;;;;;;3.20;1.63;;;;;;;;;;771326;182;816421;-74
2023/11/04 12:09:53;;;;;;;3.42;1.67;;;;;;;;;;772402;182;814534;-74
2023/11/04 12:12:19;;;;;;;2.90;1.50;;;;;;;;;;769618;182;814897;-73
2023/11/04 12:14:45;;;;;;;2.73;1.33;;;;;;;;;;768046;182;918798;-75
2023/11/04 12:17:11;;;;;;;2.50;1.17;;;;;;;;;;775458;182;816478;-74
2023/11/04 12:19:37;;;;;;;2.93;1.50;;;;;;;;;;766357;182;871196;-74
2023/11/04 12:22:03;;;;;;;2.85;1.62;;;;;;;;;;768486;182;919529;-74
2023/11/04 12:24:28;;;;;;;3.40;1.73;;;;;;;;;;769782;182;919300;-74
2023/11/04 12:26:54;;;;;;;4.60;1.80;;;;;;;;;;766963;182;918426;-74
2023/11/04 12:29:20;;;;;;;3.80;1.73;;;;;;;;;;765754;183;865274;-75
2023/11/04 12:31:46;;;;;;;5.07;1.90;;;;;;;;;;766787;183;806501;-73
2023/11/04 12:34:12;;;;;;;3.67;1.47;;;;;;;;;;767929;179;920468;-74
2023/11/04 12:36:38;;;;;;;2.97;1.57;;;;;;;;;;767055;182;918997;-73
2023/11/04 12:39:03;;;;;;;3.97;1.70;;;;;;;;;;766247;182;913326;-73
2023/11/04 12:41:29;;;;;;;3.03;1.60;;;;;;;;;;770862;182;913020;-74
2023/11/04 12:43:55;;;;;;;2.53;1.50;;;;;;;;;;766754;182;918188;-74
2023/11/04 12:46:22;;;;;;;4.15;1.70;;;;;;;;;;767767;183;918164;-75
2023/11/04 12:48:48;;;;;;;2.60;1.47;;;;;;;;;;771842;183;893917;-73
2023/11/04 12:51:14;;;;;;;4.10;1.77;;;;;;;;;;766850;182;918806;-74
2023/11/04 12:53:39;;;;;;;2.70;1.33;;;;;;;;;;766235;182;916712;-73
2023/11/04 12:56:06;;;;;;;2.77;1.63;;;;;;;;;;769042;182;919537;-73
2023/11/04 12:58:32;;;;;;;4.37;1.70;;;;;;;;;;772867;182;917560;-73
2023/11/04 13:00:58;;;;;;;8.13;2.40;;;;;;;;;;769339;182;913929;-73
2023/11/04 13:03:25;;;;;;;3.33;1.60;;;;;;;;;;770595;182;915741;-73
2023/11/04 13:05:49;;;;;;;4.80;1.70;;;;;;;;;;773112;182;813440;-72
2023/11/04 13:08:15;;;;;;;3.70;1.70;;;;;;;;;;767845;182;805136;-73
2023/11/04 13:10:41;;;;;;;3.77;1.60;;;;;;;;;;766704;182;942692;-73
2023/11/04 13:13:08;;;;;;;3.33;1.57;;;;;;;;;;773237;182;809541;-74
2023/11/04 13:15:33;;;;;;;4.30;1.70;;;;;;;;;;767265;182;846758;-74
2023/11/04 13:17:59;;;;;;;3.30;1.80;;;;;;;;;;766737;182;918849;-74
2023/11/04 13:20:24;;;;;;;2.60;1.50;;;;;;;;;;774149;182;911974;-73
2023/11/04 13:22:50;;;;;;;2.40;1.60;;;;;;;;;;767534;182;939886;-73
2023/11/04 13:25:16;;;;;;;6.00;2.25;;;;;;;;;;750643;185;903568;-73
2023/11/04 13:27:42;;;;;;;2.97;1.67;;;;;;;;;;763055;182;1100372;-74
2023/11/04 13:30:08;;;;;;;4.37;2.00;;;;;;;;;;762931;184;799052;-73
2023/11/04 13:32:34;;;;;;;3.57;1.70;;;;;;;;;;765828;182;846213;-74
2023/11/04 13:34:59;;;;;;;4.47;1.30;;;;;;;;;;766077;182;918398;-73
2023/11/04 13:37:25;;;;;;;3.10;1.53;;;;;;;;;;772108;183;815728;-73
2023/11/04 13:39:51;;;;;;;3.90;1.70;;;;;;;;;;765777;183;640410;-73
2023/11/04 13:42:17;;;;;;;3.50;1.98;;;;;;;;;;768142;183;923232;-73
2023/11/04 13:44:43;;;;;;;3.17;1.60;;;;;;;;;;771017;182;909507;-73
2023/11/04 13:47:09;;;;;;;4.13;1.70;;;;;;;;;;770139;182;808443;-74
2023/11/04 13:49:35;;;;;;;2.73;1.43;;;;;;;;;;764981;182;918980;-73
2023/11/04 13:52:01;;;;;;;3.00;1.35;;;;;;;;;;772178;179;816518;-67
2023/11/04 13:54:27;;;;;;;4.80;1.40;;;;;;;;;;788846;176;784423;-67
2023/11/04 13:56:54;;;;;;;3.25;1.55;;;;;;;;;;787537;175;929680;-67
2023/11/04 13:59:19;;;;;;;3.23;1.50;;;;;;;;;;770420;179;915350;-66
2023/11/04 14:01:46;;;;;;;2.90;1.80;;;;;;;;;;778454;179;838348;-68
2023/11/04 14:04:11;;;;;;;5.00;1.63;;;;;;;;;;776669;179;875748;-66
2023/11/04 14:06:37;;;;;;;3.27;1.80;;;;;;;;;;772812;179;890272;-67
2023/11/04 14:09:03;;;;;;;3.30;1.77;;;;;;;;;;776244;179;915271;-67
2023/11/04 14:11:29;;;;;;;8.03;2.50;;;;;;;;;;774225;178;919004;-66
2023/11/04 14:13:54;;;;;;;2.97;1.73;;;;;;;;;;778724;178;918043;-66
2023/11/04 14:16:20;;;;;;;5.40;2.70;;;;;;;;;;783849;178;918300;-66
2023/11/04 14:18:46;;;;;;;4.00;2.50;;;;;;;;;;776747;177;925979;-66
2023/11/04 14:21:13;;;;;;;5.90;2.07;;;;;;;;;;780699;178;918109;-66